Velikie Luki, Russia
Current Conditions -  °F | °C
As of 8:00 PM on Thursday 18 Dec 2014 (Local Time) from UMII Reporting Station
Haze Haze  
Wind Chill: 26°   Ceiling: 900
Heat Index: 32°   Visibility: 2.6mi
Dew Point: 30°   Wind: 7mph
Humidity: 93%   Direction: 180°S
Pressure: 29.74"   Gusts: NA
Location:  56.34°N, 30.53°E
Report Text: UMII 181700Z 18003MPS 4300 BR BKN009CB M00/M01 Q1007 R23/595026TEMPO 2000 SHSNRA BKN005
Loading
Personal Weather Stations






























Interactive Weather Map New forecast layout! Learn more

10-Day Weather Forecast

Advertisements
Track Severe Weather on mobile